createdAt,value
2022-07-27T00:00:47.469Z,65.30
2022-07-27T00:03:14.236Z,65.32
2022-07-27T00:05:40.745Z,66.17
2022-07-27T00:08:07.283Z,66.39
2022-07-27T00:10:35.084Z,65.27
2022-07-27T00:13:01.889Z,65.93
2022-07-27T00:15:28.627Z,64.81
2022-07-27T00:17:56.837Z,65.40
2022-07-27T00:20:27.237Z,65.82
2022-07-27T00:22:55.311Z,65.10
2022-07-27T00:25:22.936Z,65.11
2022-07-27T00:27:49.671Z,65.00
2022-07-27T00:30:16.517Z,65.81
2022-07-27T00:32:43.033Z,66.33
2022-07-27T00:35:09.850Z,65.66
2022-07-27T00:37:36.314Z,65.11
2022-07-27T00:40:03.869Z,65.55
2022-07-27T00:42:31.220Z,65.94
2022-07-27T00:44:58.239Z,64.70
2022-07-27T00:47:25.324Z,64.79
2022-07-27T00:49:52.303Z,65.56
2022-07-27T00:52:19.381Z,65.10
2022-07-27T00:54:47.848Z,66.40
2022-07-27T00:57:15.495Z,65.34
2022-07-27T00:59:42.696Z,66.57
2022-07-27T01:02:12.140Z,66.09
2022-07-27T01:04:39.614Z,66.64
2022-07-27T01:07:07.102Z,65.56
2022-07-27T01:09:53.065Z,65.31
2022-07-27T01:12:23.579Z,65.74
2022-07-27T01:14:52.477Z,65.81
2022-07-27T01:17:19.508Z,67.67
2022-07-27T01:19:46.446Z,67.29
2022-07-27T01:22:13.104Z,67.35
2022-07-27T01:24:39.719Z,66.75
2022-07-27T01:27:07.461Z,67.29
2022-07-27T01:29:35.412Z,67.17
2022-07-27T01:32:02.620Z,68.01
2022-07-27T01:34:29.460Z,67.16
2022-07-27T01:36:56.015Z,68.44
2022-07-27T01:39:22.482Z,67.63
2022-07-27T01:41:48.976Z,68.52
2022-07-27T01:44:15.710Z,68.47
2022-07-27T01:46:42.333Z,68.07
2022-07-27T01:49:09.506Z,68.69
2022-07-27T01:51:36.352Z,67.58
2022-07-27T01:54:02.914Z,69.01
2022-07-27T01:56:29.371Z,68.24
2022-07-27T01:58:55.848Z,68.79
2022-07-27T02:01:22.584Z,68.64
2022-07-27T02:03:49.120Z,69.77
2022-07-27T02:06:15.989Z,69.73
2022-07-27T02:08:42.465Z,70.12
2022-07-27T02:11:27.654Z,69.71
2022-07-27T02:13:54.173Z,69.77
2022-07-27T02:16:20.736Z,69.48
2022-07-27T02:18:48.883Z,71.22
2022-07-27T02:21:15.738Z,70.11
2022-07-27T02:23:44.437Z,70.26
2022-07-27T02:26:11.220Z,71.59
2022-07-27T02:28:37.877Z,71.61
2022-07-27T02:31:04.952Z,71.43
2022-07-27T02:33:31.749Z,71.53
2022-07-27T02:35:58.289Z,71.88
2022-07-27T02:38:25.850Z,70.98
2022-07-27T02:40:52.518Z,70.77
2022-07-27T02:43:19.123Z,70.71
2022-07-27T02:45:46.442Z,70.69
2022-07-27T02:48:13.254Z,70.37
2022-07-27T02:50:39.816Z,69.98
2022-07-27T02:53:06.356Z,69.55
2022-07-27T02:55:33.016Z,69.50
2022-07-27T02:57:59.493Z,70.37
2022-07-27T03:00:26.194Z,70.18
2022-07-27T03:02:52.868Z,69.92
2022-07-27T03:05:19.471Z,69.52
2022-07-27T03:07:46.032Z,70.11
2022-07-27T03:10:12.553Z,70.15
2022-07-27T03:12:39.170Z,70.58
2022-07-27T03:15:06.244Z,71.90
2022-07-27T03:17:33.083Z,71.12
2022-07-27T03:19:59.815Z,71.88
2022-07-27T03:22:30.500Z,71.09
2022-07-27T03:24:57.311Z,71.25
2022-07-27T03:27:23.798Z,71.38
2022-07-27T03:29:50.302Z,71.20
2022-07-27T03:32:17.088Z,70.53
2022-07-27T03:34:43.565Z,71.48
2022-07-27T03:37:10.055Z,71.32
2022-07-27T03:39:36.690Z,72.05
2022-07-27T03:42:03.911Z,71.46
2022-07-27T03:44:30.532Z,71.42
2022-07-27T03:46:57.012Z,70.65
2022-07-27T03:49:23.870Z,70.79
2022-07-27T03:51:50.443Z,71.52
2022-07-27T03:54:17.816Z,71.69
2022-07-27T03:56:44.931Z,71.96
2022-07-27T03:59:11.824Z,72.31
2022-07-27T04:01:38.764Z,71.80
2022-07-27T04:04:05.481Z,71.21
2022-07-27T04:06:31.953Z,71.30
2022-07-27T04:09:11.866Z,72.21
2022-07-27T04:11:43.403Z,72.26
2022-07-27T04:14:17.749Z,72.70
2022-07-27T04:16:44.412Z,72.31
2022-07-27T04:19:11.282Z,71.90
2022-07-27T04:21:38.018Z,71.59
2022-07-27T04:24:05.462Z,72.33
2022-07-27T04:26:31.932Z,71.50
2022-07-27T04:28:58.424Z,72.12
2022-07-27T04:31:25.448Z,71.97
2022-07-27T04:33:52.022Z,72.07
2022-07-27T04:36:18.520Z,72.35
2022-07-27T04:38:45.137Z,72.24
2022-07-27T04:41:12.816Z,71.96
2022-07-27T04:43:39.689Z,72.85
2022-07-27T04:46:10.536Z,72.31
2022-07-27T04:48:39.861Z,73.11
2022-07-27T04:51:08.079Z,73.13
2022-07-27T04:53:35.836Z,73.01
2022-07-27T04:56:02.294Z,73.29
2022-07-27T04:58:28.796Z,73.88
2022-07-27T05:00:55.331Z,73.82
2022-07-27T05:03:21.833Z,73.82
2022-07-27T05:05:49.796Z,73.29
2022-07-27T05:08:17.525Z,73.40
2022-07-27T05:10:44.090Z,73.01
2022-07-27T05:13:10.910Z,73.50
2022-07-27T05:15:54.786Z,72.11
2022-07-27T05:18:22.274Z,71.81
2022-07-27T05:20:48.815Z,72.69
2022-07-27T05:23:17.072Z,72.24
2022-07-27T05:25:43.655Z,71.04
2022-07-27T05:28:12.106Z,71.49
2022-07-27T05:30:38.574Z,72.08
2022-07-27T05:33:05.175Z,70.91
2022-07-27T05:35:32.115Z,72.07
2022-07-27T05:37:58.662Z,72.57
2022-07-27T05:40:26.355Z,71.99
2022-07-27T05:42:52.876Z,71.67
2022-07-27T05:45:19.490Z,71.92
2022-07-27T05:47:46.000Z,71.84
2022-07-27T05:50:12.567Z,70.63
2022-07-27T05:52:39.211Z,70.74
2022-07-27T05:55:06.395Z,70.22
2022-07-27T05:57:33.223Z,70.96
2022-07-27T06:00:01.413Z,71.50
2022-07-27T06:02:30.146Z,70.89
2022-07-27T06:04:56.672Z,69.28
2022-07-27T06:07:41.789Z,71.18
2022-07-27T06:10:09.573Z,70.39
2022-07-27T06:12:40.672Z,71.07
2022-07-27T06:15:08.510Z,70.53
2022-07-27T06:17:35.507Z,69.76
2022-07-27T06:20:07.379Z,69.91
2022-07-27T06:22:47.577Z,70.74
2022-07-27T06:25:14.136Z,69.00
2022-07-27T06:27:40.755Z,70.00
2022-07-27T06:30:08.057Z,69.77
2022-07-27T06:32:34.590Z,69.08
2022-07-27T06:35:02.190Z,69.68
2022-07-27T06:37:31.078Z,68.59
2022-07-27T06:39:58.580Z,68.58
2022-07-27T06:42:25.164Z,68.85
2022-07-27T06:44:51.646Z,67.95
2022-07-27T06:47:18.289Z,67.93
2022-07-27T06:49:44.901Z,67.40
2022-07-27T06:52:11.602Z,66.30
2022-07-27T06:54:38.233Z,65.87
2022-07-27T06:57:05.016Z,67.25
2022-07-27T06:59:42.728Z,65.95
2022-07-27T07:02:10.486Z,66.39
2022-07-27T07:04:37.066Z,67.02
2022-07-27T07:07:07.109Z,65.53
2022-07-27T07:09:34.571Z,65.44
2022-07-27T07:12:02.419Z,65.33
2022-07-27T07:14:29.129Z,64.20
2022-07-27T07:16:55.636Z,65.09
2022-07-27T07:19:22.185Z,62.95
2022-07-27T07:21:48.767Z,62.74
2022-07-27T07:24:15.282Z,62.15
2022-07-27T07:26:41.829Z,62.66
2022-07-27T07:29:09.138Z,62.85
2022-07-27T07:31:36.429Z,62.21
2022-07-27T07:34:03.570Z,62.24
2022-07-27T07:36:30.151Z,61.52
2022-07-27T07:38:56.762Z,62.26
2022-07-27T07:41:24.104Z,62.46
2022-07-27T07:43:50.857Z,62.70
2022-07-27T07:46:17.556Z,62.71
2022-07-27T07:48:44.381Z,60.91
2022-07-27T07:51:11.513Z,61.36
2022-07-27T07:53:41.691Z,60.84
2022-07-27T07:56:08.817Z,61.13
2022-07-27T07:58:39.233Z,60.84
2022-07-27T08:01:05.773Z,60.00
2022-07-27T08:03:33.426Z,59.52
2022-07-27T08:06:03.755Z,59.06
2022-07-27T08:08:31.049Z,58.21
2022-07-27T08:10:58.178Z,58.92
2022-07-27T08:13:28.123Z,59.33
2022-07-27T08:15:54.983Z,58.79
2022-07-27T08:18:21.617Z,59.49
2022-07-27T08:20:48.410Z,58.75
2022-07-27T08:23:15.488Z,57.80
2022-07-27T08:25:42.795Z,58.45
2022-07-27T08:28:09.970Z,57.84
2022-07-27T08:30:36.804Z,58.12
2022-07-27T08:33:05.228Z,58.62
2022-07-27T08:35:34.141Z,57.63
2022-07-27T08:38:02.807Z,57.12
2022-07-27T08:40:46.570Z,56.02
2022-07-27T08:43:23.737Z,56.24
2022-07-27T08:45:57.511Z,56.06
2022-07-27T08:48:26.287Z,57.04
2022-07-27T08:50:54.970Z,56.64
2022-07-27T08:53:22.997Z,56.34
2022-07-27T08:55:50.373Z,56.25
2022-07-27T08:58:17.762Z,55.69
2022-07-27T09:00:48.054Z,55.45
2022-07-27T09:03:19.456Z,55.11
2022-07-27T09:05:53.683Z,55.87
2022-07-27T09:08:25.448Z,55.99
2022-07-27T09:10:54.876Z,55.91
2022-07-27T09:13:24.478Z,56.92
2022-07-27T09:16:18.775Z,55.92
2022-07-27T09:18:44.899Z,56.60
2022-07-27T09:21:23.249Z,56.72
2022-07-27T09:23:52.326Z,56.04
2022-07-27T09:26:33.130Z,56.13
2022-07-27T09:29:13.356Z,56.69
2022-07-27T09:31:51.424Z,56.32
2022-07-27T09:34:29.803Z,56.37
2022-07-27T09:36:59.018Z,55.32
2022-07-27T09:39:27.806Z,54.68
2022-07-27T09:41:55.809Z,54.45
2022-07-27T09:44:42.183Z,54.59
2022-07-27T09:47:29.006Z,55.70
2022-07-27T09:49:58.768Z,56.18
2022-07-27T09:52:30.774Z,55.71
2022-07-27T09:55:07.420Z,56.05
2022-07-27T09:57:53.694Z,56.14
2022-07-27T10:00:21.667Z,56.63
2022-07-27T10:02:50.303Z,56.56
2022-07-27T10:05:21.329Z,55.68
2022-07-27T10:07:49.212Z,56.48
2022-07-27T10:10:16.525Z,55.31
2022-07-27T10:12:46.950Z,53.96
2022-07-27T10:15:16.886Z,54.82
2022-07-27T10:17:44.869Z,55.52
2022-07-27T10:20:14.447Z,54.24
2022-07-27T10:23:01.664Z,53.79
2022-07-27T10:25:34.312Z,53.39
2022-07-27T10:28:18.028Z,53.34
2022-07-27T10:30:49.472Z,53.09
2022-07-27T10:33:49.488Z,52.69
2022-07-27T10:36:37.260Z,51.43
2022-07-27T10:39:08.171Z,52.26
2022-07-27T10:41:41.744Z,51.92
2022-07-27T10:44:17.706Z,52.92
2022-07-27T10:46:56.589Z,53.15
2022-07-27T10:49:26.863Z,53.27
2022-07-27T10:51:54.950Z,52.25
2022-07-27T10:54:27.000Z,52.57
2022-07-27T10:56:57.895Z,52.03
2022-07-27T11:02:41.951Z,51.22
2022-07-27T11:05:29.114Z,51.64
2022-07-27T11:08:35.207Z,52.08
2022-07-27T11:10:45.180Z,52.05
2022-07-27T11:13:12.785Z,52.68
2022-07-27T11:15:39.303Z,52.54
2022-07-27T11:18:05.892Z,52.89
2022-07-27T11:20:32.505Z,53.95
2022-07-27T11:23:49.819Z,53.50
2022-07-27T11:26:01.755Z,53.91
2022-07-27T11:28:32.739Z,53.99
2022-07-27T11:31:03.196Z,53.39
2022-07-27T11:33:30.293Z,54.14
2022-07-27T11:35:59.791Z,53.41
2022-07-27T11:38:26.657Z,53.17
2022-07-27T11:40:59.844Z,53.73
2022-07-27T11:43:41.510Z,53.42
2022-07-27T11:46:26.518Z,53.29
2022-07-27T11:49:08.337Z,53.84
2022-07-27T11:51:43.289Z,53.04
2022-07-27T11:54:24.823Z,52.36
2022-07-27T11:56:55.452Z,52.78
2022-07-27T11:59:36.378Z,53.31
2022-07-27T12:02:11.969Z,53.02
2022-07-27T12:04:41.403Z,52.35
2022-07-27T12:07:15.628Z,51.24
2022-07-27T12:09:48.513Z,50.69
2022-07-27T12:12:20.214Z,50.39
2022-07-27T12:14:49.607Z,50.74
2022-07-27T12:17:16.428Z,50.68
2022-07-27T12:19:43.414Z,51.95
2022-07-27T12:22:10.216Z,51.01
2022-07-27T12:24:41.632Z,50.72
2022-07-27T12:27:14.549Z,50.92
2022-07-27T12:30:01.627Z,51.29
2022-07-27T12:32:30.300Z,50.60
2022-07-27T12:34:57.294Z,51.66
2022-07-27T12:37:32.160Z,52.49
2022-07-27T12:40:00.207Z,51.10
2022-07-27T12:42:36.444Z,50.71
2022-07-27T12:45:15.093Z,49.74
2022-07-27T12:47:41.897Z,49.91
2022-07-27T12:50:17.443Z,49.07
2022-07-27T12:52:53.373Z,49.12
2022-07-27T12:55:22.763Z,50.00
2022-07-27T12:57:57.738Z,49.75
2022-07-27T13:00:32.823Z,50.11
2022-07-27T13:03:02.201Z,49.47
2022-07-27T13:05:28.965Z,49.53
2022-07-27T13:07:55.527Z,48.88
2022-07-27T13:10:22.135Z,49.17
2022-07-27T13:12:49.421Z,48.31
2022-07-27T13:15:16.777Z,49.82
2022-07-27T13:17:45.064Z,48.67
2022-07-27T13:20:13.178Z,48.47
2022-07-27T13:22:41.447Z,49.18
2022-07-27T13:25:15.883Z,49.59
2022-07-27T13:27:45.001Z,48.68
2022-07-27T13:30:13.415Z,49.72
2022-07-27T13:32:41.040Z,49.69
2022-07-27T13:35:09.287Z,49.86
2022-07-27T13:37:35.828Z,50.21
2022-07-27T13:40:02.367Z,48.93
2022-07-27T13:42:28.903Z,49.34
2022-07-27T13:45:08.589Z,48.58
2022-07-27T13:47:35.633Z,48.56
2022-07-27T13:50:03.331Z,47.66
2022-07-27T13:52:29.986Z,49.17
2022-07-27T13:54:56.565Z,49.79
2022-07-27T13:57:23.499Z,48.88
2022-07-27T13:59:49.970Z,48.02
2022-07-27T14:02:22.948Z,47.20
2022-07-27T14:04:50.012Z,47.96
2022-07-27T14:07:16.763Z,47.92
2022-07-27T14:10:01.775Z,47.99
2022-07-27T14:12:28.352Z,47.80
2022-07-27T14:14:54.840Z,47.73
2022-07-27T14:17:21.385Z,47.32
2022-07-27T14:19:47.848Z,47.70
2022-07-27T14:22:14.394Z,48.19
2022-07-27T14:24:40.946Z,48.18
2022-07-27T14:27:07.572Z,47.38
2022-07-27T14:29:34.383Z,47.37
2022-07-27T14:32:01.414Z,47.80
2022-07-27T14:34:28.017Z,47.40
2022-07-27T14:36:54.486Z,48.90
2022-07-27T14:39:21.057Z,47.51
2022-07-27T14:41:47.532Z,48.60
2022-07-27T14:44:14.218Z,48.49
2022-07-27T14:46:45.251Z,47.48
2022-07-27T14:49:11.838Z,47.76
2022-07-27T14:51:38.378Z,47.48
2022-07-27T14:54:07.644Z,47.91
2022-07-27T14:56:34.159Z,47.19
2022-07-27T14:59:00.684Z,48.21
2022-07-27T15:01:28.874Z,47.86
2022-07-27T15:03:56.382Z,47.92
2022-07-27T15:06:22.995Z,47.74
2022-07-27T15:08:49.682Z,48.43
2022-07-27T15:11:16.644Z,47.08
2022-07-27T15:13:43.151Z,48.10
2022-07-27T15:16:11.033Z,48.04
2022-07-27T15:18:39.035Z,47.36
2022-07-27T15:21:13.565Z,46.99
2022-07-27T15:23:43.167Z,47.83
2022-07-27T15:26:09.774Z,47.33
2022-07-27T15:28:36.352Z,47.29
2022-07-27T15:31:03.223Z,46.98
2022-07-27T15:33:29.870Z,47.91
2022-07-27T15:35:56.567Z,47.50
2022-07-27T15:38:23.290Z,48.58
2022-07-27T15:40:49.899Z,48.85
2022-07-27T15:43:18.081Z,47.46
2022-07-27T15:45:48.212Z,48.17
2022-07-27T15:48:16.244Z,47.19
2022-07-27T15:50:45.342Z,47.62
2022-07-27T15:53:12.074Z,47.27
2022-07-27T15:55:38.617Z,45.98
2022-07-27T15:58:06.233Z,46.80
2022-07-27T16:00:38.650Z,45.80
2022-07-27T16:03:07.848Z,46.07
2022-07-27T16:05:34.395Z,46.95
2022-07-27T16:08:00.875Z,46.70
2022-07-27T16:10:29.738Z,46.47
2022-07-27T16:12:56.877Z,46.80
2022-07-27T16:15:43.921Z,45.91
2022-07-27T16:18:10.805Z,45.97
2022-07-27T16:20:37.759Z,45.96
2022-07-27T16:23:17.705Z,45.42
2022-07-27T16:26:04.148Z,45.64
2022-07-27T16:28:41.838Z,45.76
2022-07-27T16:31:11.175Z,45.45
2022-07-27T16:33:38.457Z,45.35
2022-07-27T16:36:08.587Z,46.50
2022-07-27T16:38:35.905Z,46.53
2022-07-27T16:41:06.106Z,46.08
2022-07-27T16:43:38.426Z,46.70
2022-07-27T16:46:08.159Z,47.35
2022-07-27T16:48:42.012Z,46.68
2022-07-27T16:51:11.418Z,46.04
2022-07-27T16:53:39.551Z,46.12
2022-07-27T16:56:06.797Z,46.70
2022-07-27T16:58:33.330Z,46.91
2022-07-27T17:01:00.134Z,46.78
2022-07-27T17:03:28.826Z,46.43
2022-07-27T17:05:55.454Z,46.46
2022-07-27T17:08:27.781Z,46.70
2022-07-27T17:10:55.453Z,46.63
2022-07-27T17:13:22.055Z,46.16
2022-07-27T17:15:48.775Z,46.86
2022-07-27T17:18:16.140Z,47.45
2022-07-27T17:20:42.648Z,46.91
2022-07-27T17:23:10.134Z,46.61
2022-07-27T17:25:36.961Z,45.89
2022-07-27T17:28:03.679Z,46.95
2022-07-27T17:30:33.884Z,46.25
2022-07-27T17:33:02.912Z,47.00
2022-07-27T17:35:29.488Z,47.23
2022-07-27T17:38:06.299Z,47.41
2022-07-27T17:40:33.746Z,46.86
2022-07-27T17:43:00.247Z,47.13
2022-07-27T17:45:26.852Z,48.20
2022-07-27T17:47:53.404Z,47.78
2022-07-27T17:50:19.956Z,48.21
2022-07-27T17:52:46.514Z,48.52
2022-07-27T17:55:13.058Z,48.33
2022-07-27T17:57:39.643Z,47.94
2022-07-27T18:00:07.525Z,49.43
2022-07-27T18:02:36.539Z,48.46
2022-07-27T18:05:03.808Z,48.45
2022-07-27T18:07:30.316Z,48.55
2022-07-27T18:10:05.135Z,49.33
2022-07-27T18:12:31.689Z,48.52
2022-07-27T18:15:16.910Z,48.71
2022-07-27T18:17:43.390Z,48.65
2022-07-27T18:20:10.915Z,48.65
2022-07-27T18:22:38.625Z,48.74
2022-07-27T18:25:06.949Z,48.52
2022-07-27T18:27:35.377Z,49.10
2022-07-27T18:30:03.766Z,49.43
2022-07-27T18:32:30.244Z,49.34
2022-07-27T18:34:56.929Z,49.81
2022-07-27T18:37:23.453Z,49.24
2022-07-27T18:39:50.010Z,50.03
2022-07-27T18:42:16.668Z,49.99
2022-07-27T18:44:43.173Z,50.13
2022-07-27T18:47:09.940Z,50.56
2022-07-27T18:49:36.786Z,50.35
2022-07-27T18:52:05.879Z,50.80
2022-07-27T18:54:33.934Z,50.89
2022-07-27T18:57:00.745Z,50.47
2022-07-27T18:59:27.316Z,50.85
2022-07-27T19:01:53.912Z,50.74
2022-07-27T19:04:20.565Z,50.89
2022-07-27T19:06:51.447Z,50.66
2022-07-27T19:09:18.548Z,51.12
2022-07-27T19:11:45.182Z,51.35
2022-07-27T19:14:11.725Z,51.05
2022-07-27T19:16:38.427Z,50.42
2022-07-27T19:19:07.725Z,51.13
2022-07-27T19:21:38.230Z,52.88
2022-07-27T19:24:04.986Z,54.81
2022-07-27T19:26:31.805Z,53.71
2022-07-27T19:28:58.475Z,53.78
2022-07-27T19:31:25.193Z,52.72
2022-07-27T19:33:52.890Z,53.23
2022-07-27T19:36:20.405Z,56.47
2022-07-27T19:38:46.938Z,55.71
2022-07-27T19:41:13.561Z,56.42
2022-07-27T19:43:41.128Z,58.09
2022-07-27T19:46:07.874Z,59.59
2022-07-27T19:48:34.471Z,60.75
2022-07-27T19:51:06.862Z,62.08
2022-07-27T19:53:35.556Z,61.85
2022-07-27T19:56:03.913Z,63.52
2022-07-27T19:58:31.896Z,62.17
2022-07-27T20:00:58.827Z,63.16
2022-07-27T20:03:25.546Z,64.96
2022-07-27T20:05:52.099Z,62.82
2022-07-27T20:08:19.348Z,61.37
2022-07-27T20:10:47.489Z,59.94
2022-07-27T20:13:14.555Z,60.09
2022-07-27T20:15:41.200Z,58.96
2022-07-27T20:18:07.975Z,58.60
2022-07-27T20:20:34.769Z,59.11
2022-07-27T20:23:01.464Z,58.52
2022-07-27T20:25:28.165Z,60.51
2022-07-27T20:27:54.824Z,59.26
2022-07-27T20:30:21.713Z,58.40
2022-07-27T20:32:49.218Z,59.16
2022-07-27T20:35:17.828Z,59.89
2022-07-27T20:37:45.753Z,60.02
2022-07-27T20:40:13.315Z,60.86
2022-07-27T20:42:41.568Z,60.96
2022-07-27T20:45:11.245Z,62.79
2022-07-27T20:47:40.922Z,63.48
2022-07-27T20:50:09.857Z,63.55
2022-07-27T20:52:37.429Z,65.03
2022-07-27T20:55:06.326Z,65.03
2022-07-27T20:57:32.871Z,66.19
2022-07-27T20:59:59.485Z,66.14
2022-07-27T21:02:26.111Z,66.94
2022-07-27T21:04:54.778Z,66.68
2022-07-27T21:07:21.739Z,66.46
2022-07-27T21:09:48.674Z,67.95
2022-07-27T21:12:15.591Z,68.80
2022-07-27T21:14:42.983Z,68.25
2022-07-27T21:17:09.787Z,69.43
2022-07-27T21:19:36.619Z,69.45
2022-07-27T21:22:03.140Z,68.88
2022-07-27T21:24:29.852Z,69.17
2022-07-27T21:27:01.000Z,69.60
2022-07-27T21:29:31.692Z,70.02
2022-07-27T21:31:58.969Z,70.54
2022-07-27T21:34:25.595Z,69.97
2022-07-27T21:36:52.173Z,71.09
2022-07-27T21:39:18.855Z,71.24
2022-07-27T21:41:45.784Z,70.94
2022-07-27T21:44:13.013Z,70.76
2022-07-27T21:46:39.695Z,70.75
2022-07-27T21:49:06.302Z,71.00
2022-07-27T21:51:32.907Z,71.67
2022-07-27T21:53:59.723Z,71.75
2022-07-27T21:56:26.659Z,71.51
2022-07-27T21:58:53.142Z,71.71
2022-07-27T22:01:19.936Z,72.58
2022-07-27T22:03:49.774Z,71.81
2022-07-27T22:06:16.839Z,71.67
2022-07-27T22:08:43.670Z,72.79
2022-07-27T22:11:10.313Z,70.34
2022-07-27T22:13:36.799Z,70.81
2022-07-27T22:16:03.777Z,70.38
2022-07-27T22:18:30.554Z,71.17
2022-07-27T22:20:57.620Z,71.28
2022-07-27T22:23:24.543Z,69.84
2022-07-27T22:25:51.622Z,71.01
2022-07-27T22:28:18.201Z,70.31
2022-07-27T22:31:20.700Z,68.97
2022-07-27T22:33:31.275Z,68.65
2022-07-27T22:35:57.906Z,67.80
2022-07-27T22:38:24.590Z,66.98
2022-07-27T22:40:55.366Z,67.17
2022-07-27T22:43:22.455Z,66.59
2022-07-27T22:45:49.818Z,65.84
2022-07-27T22:48:16.382Z,66.05
2022-07-27T22:50:45.455Z,65.55
2022-07-27T22:53:11.999Z,65.17
2022-07-27T22:55:38.873Z,64.67
2022-07-27T22:58:05.464Z,65.08
2022-07-27T23:00:32.200Z,64.66
2022-07-27T23:02:58.817Z,65.30
2022-07-27T23:05:25.363Z,64.81
2022-07-27T23:07:51.855Z,65.62
2022-07-27T23:10:37.047Z,66.87
2022-07-27T23:13:03.631Z,69.29
2022-07-27T23:15:30.952Z,69.83
2022-07-27T23:17:57.457Z,71.13
2022-07-27T23:20:23.916Z,70.62
2022-07-27T23:22:50.470Z,71.01
2022-07-27T23:25:17.325Z,71.15
2022-07-27T23:27:43.830Z,71.71
2022-07-27T23:30:10.773Z,72.03
2022-07-27T23:32:37.321Z,72.77
2022-07-27T23:35:04.180Z,73.01
2022-07-27T23:37:30.668Z,72.88
2022-07-27T23:39:57.173Z,72.53
2022-07-27T23:42:23.666Z,72.76
2022-07-27T23:44:50.118Z,73.67
2022-07-27T23:47:18.620Z,73.87
2022-07-27T23:49:45.091Z,74.17
2022-07-27T23:52:11.582Z,73.81
2022-07-27T23:54:38.140Z,73.91
2022-07-27T23:57:05.151Z,74.07
2022-07-27T23:59:31.628Z,74.17
